sensor_id;sensor_type;location;lat;lon;timestamp;temperature;humidity
64599;SHT31;51008;51.504;11.548;2022-08-30T00:04:06;14.42;84.28
64599;SHT31;51008;51.504;11.548;2022-08-30T00:09:07;14.33;84.60
64599;SHT31;51008;51.504;11.548;2022-08-30T00:14:08;14.22;84.67
64599;SHT31;51008;51.504;11.548;2022-08-30T00:19:09;14.21;85.08
64599;SHT31;51008;51.504;11.548;2022-08-30T00:24:10;14.19;85.56
64599;SHT31;51008;51.504;11.548;2022-08-30T00:29:11;14.28;86.04
64599;SHT31;51008;51.504;11.548;2022-08-30T00:34:13;14.22;85.98
64599;SHT31;51008;51.504;11.548;2022-08-30T00:39:14;14.19;86.06
64599;SHT31;51008;51.504;11.548;2022-08-30T00:44:15;14.18;86.33
64599;SHT31;51008;51.504;11.548;2022-08-30T00:49:16;14.19;86.87
64599;SHT31;51008;51.504;11.548;2022-08-30T00:54:17;14.17;87.15
64599;SHT31;51008;51.504;11.548;2022-08-30T00:59:19;14.17;87.17
64599;SHT31;51008;51.504;11.548;2022-08-30T01:04:24;14.17;87.12
64599;SHT31;51008;51.504;11.548;2022-08-30T01:09:26;14.10;87.00
64599;SHT31;51008;51.504;11.548;2022-08-30T01:14:27;14.02;86.99
64599;SHT31;51008;51.504;11.548;2022-08-30T01:19:55;14.01;87.02
64599;SHT31;51008;51.504;11.548;2022-08-30T01:24:58;14.01;87.42
64599;SHT31;51008;51.504;11.548;2022-08-30T01:30:00;13.95;87.55
64599;SHT31;51008;51.504;11.548;2022-08-30T01:35:01;13.98;88.08
64599;SHT31;51008;51.504;11.548;2022-08-30T01:40:02;13.97;88.30
64599;SHT31;51008;51.504;11.548;2022-08-30T01:45:05;14.01;88.76
64599;SHT31;51008;51.504;11.548;2022-08-30T01:50:07;14.01;88.88
64599;SHT31;51008;51.504;11.548;2022-08-30T01:55:09;14.05;88.99
64599;SHT31;51008;51.504;11.548;2022-08-30T02:00:10;14.07;89.21
64599;SHT31;51008;51.504;11.548;2022-08-30T02:05:13;14.05;89.50
64599;SHT31;51008;51.504;11.548;2022-08-30T02:10:14;14.07;89.32
64599;SHT31;51008;51.504;11.548;2022-08-30T02:15:16;14.01;89.10
64599;SHT31;51008;51.504;11.548;2022-08-30T02:20:17;13.97;88.93
64599;SHT31;51008;51.504;11.548;2022-08-30T02:25:18;13.91;88.95
64599;SHT31;51008;51.504;11.548;2022-08-30T02:30:19;13.84;88.74
64599;SHT31;51008;51.504;11.548;2022-08-30T02:35:20;13.80;88.96
64599;SHT31;51008;51.504;11.548;2022-08-30T02:40:21;13.71;88.83
64599;SHT31;51008;51.504;11.548;2022-08-30T02:45:23;13.70;89.07
64599;SHT31;51008;51.504;11.548;2022-08-30T02:50:24;13.62;88.98
64599;SHT31;51008;51.504;11.548;2022-08-30T02:55:25;13.56;88.78
64599;SHT31;51008;51.504;11.548;2022-08-30T03:00:27;13.49;88.92
64599;SHT31;51008;51.504;11.548;2022-08-30T03:05:29;13.45;89.08
64599;SHT31;51008;51.504;11.548;2022-08-30T03:10:30;13.43;89.59
64599;SHT31;51008;51.504;11.548;2022-08-30T03:15:31;13.43;90.12
64599;SHT31;51008;51.504;11.548;2022-08-30T03:20:32;13.45;90.87
64599;SHT31;51008;51.504;11.548;2022-08-30T03:25:33;13.53;91.55
64599;SHT31;51008;51.504;11.548;2022-08-30T03:30:34;13.62;91.82
64599;SHT31;51008;51.504;11.548;2022-08-30T03:35:35;13.59;91.74
64599;SHT31;51008;51.504;11.548;2022-08-30T03:40:36;13.52;91.62
64599;SHT31;51008;51.504;11.548;2022-08-30T03:45:37;13.48;91.65
64599;SHT31;51008;51.504;11.548;2022-08-30T03:50:38;13.45;91.92
64599;SHT31;51008;51.504;11.548;2022-08-30T03:55:39;13.40;92.32
64599;SHT31;51008;51.504;11.548;2022-08-30T04:00:40;13.36;92.21
64599;SHT31;51008;51.504;11.548;2022-08-30T04:05:41;13.35;92.22
64599;SHT31;51008;51.504;11.548;2022-08-30T04:10:42;13.26;92.44
64599;SHT31;51008;51.504;11.548;2022-08-30T04:15:43;13.28;92.74
64599;SHT31;51008;51.504;11.548;2022-08-30T04:20:45;13.25;92.52
64599;SHT31;51008;51.504;11.548;2022-08-30T04:25:46;13.23;92.57
64599;SHT31;51008;51.504;11.548;2022-08-30T04:30:47;13.26;93.34
64599;SHT31;51008;51.504;11.548;2022-08-30T04:35:48;13.35;94.11
64599;SHT31;51008;51.504;11.548;2022-08-30T04:40:49;13.46;94.60
64599;SHT31;51008;51.504;11.548;2022-08-30T04:45:50;13.56;95.27
64599;SHT31;51008;51.504;11.548;2022-08-30T04:50:51;13.77;95.87
64599;SHT31;51008;51.504;11.548;2022-08-30T04:55:52;13.95;96.59
64599;SHT31;51008;51.504;11.548;2022-08-30T05:00:53;14.11;96.45
64599;SHT31;51008;51.504;11.548;2022-08-30T05:05:54;14.28;96.52
64599;SHT31;51008;51.504;11.548;2022-08-30T05:10:55;14.40;96.20
64599;SHT31;51008;51.504;11.548;2022-08-30T05:15:56;14.50;95.92
64599;SHT31;51008;51.504;11.548;2022-08-30T05:21:08;14.59;95.56
64599;SHT31;51008;51.504;11.548;2022-08-30T05:26:24;14.67;95.18
64599;SHT31;51008;51.504;11.548;2022-08-30T05:31:30;14.87;95.01
64599;SHT31;51008;51.504;11.548;2022-08-30T05:36:33;15.02;94.36
64599;SHT31;51008;51.504;11.548;2022-08-30T05:41:36;15.07;94.07
64599;SHT31;51008;51.504;11.548;2022-08-30T05:46:37;15.09;94.17
64599;SHT31;51008;51.504;11.548;2022-08-30T05:51:38;15.11;94.11
64599;SHT31;51008;51.504;11.548;2022-08-30T05:56:41;15.21;93.85
64599;SHT31;51008;51.504;11.548;2022-08-30T06:01:45;15.40;93.40
64599;SHT31;51008;51.504;11.548;2022-08-30T06:06:46;15.59;93.03
64599;SHT31;51008;51.504;11.548;2022-08-30T06:11:47;15.74;92.50
64599;SHT31;51008;51.504;11.548;2022-08-30T06:16:48;15.83;92.26
64599;SHT31;51008;51.504;11.548;2022-08-30T06:21:50;15.93;91.78
64599;SHT31;51008;51.504;11.548;2022-08-30T06:26:51;16.09;91.35
64599;SHT31;51008;51.504;11.548;2022-08-30T06:31:52;16.11;90.93
64599;SHT31;51008;51.504;11.548;2022-08-30T06:36:53;16.12;90.80
64599;SHT31;51008;51.504;11.548;2022-08-30T06:41:54;16.01;91.05
64599;SHT31;51008;51.504;11.548;2022-08-30T06:47:01;15.97;91.57
64599;SHT31;51008;51.504;11.548;2022-08-30T06:52:02;16.01;91.65
64599;SHT31;51008;51.504;11.548;2022-08-30T06:57:03;16.00;91.58
64599;SHT31;51008;51.504;11.548;2022-08-30T07:02:05;16.01;91.49
64599;SHT31;51008;51.504;11.548;2022-08-30T07:07:09;16.13;91.34
64599;SHT31;51008;51.504;11.548;2022-08-30T07:12:11;16.34;91.00
64599;SHT31;51008;51.504;11.548;2022-08-30T07:17:13;16.77;90.23
64599;SHT31;51008;51.504;11.548;2022-08-30T07:22:14;17.27;87.98
64599;SHT31;51008;51.504;11.548;2022-08-30T07:27:15;17.57;87.09
64599;SHT31;51008;51.504;11.548;2022-08-30T07:32:16;17.84;85.93
64599;SHT31;51008;51.504;11.548;2022-08-30T07:37:17;17.98;84.99
64599;SHT31;51008;51.504;11.548;2022-08-30T07:42:18;17.95;84.58
64599;SHT31;51008;51.504;11.548;2022-08-30T07:47:19;17.82;85.16
64599;SHT31;51008;51.504;11.548;2022-08-30T07:52:20;17.74;85.29
64599;SHT31;51008;51.504;11.548;2022-08-30T07:57:21;17.85;84.85
64599;SHT31;51008;51.504;11.548;2022-08-30T08:02:22;18.05;84.89
64599;SHT31;51008;51.504;11.548;2022-08-30T08:07:23;18.16;84.15
64599;SHT31;51008;51.504;11.548;2022-08-30T08:12:25;18.09;83.65
64599;SHT31;51008;51.504;11.548;2022-08-30T08:17:26;18.21;84.19
64599;SHT31;51008;51.504;11.548;2022-08-30T08:22:27;18.46;83.51
64599;SHT31;51008;51.504;11.548;2022-08-30T08:27:28;18.30;82.96
64599;SHT31;51008;51.504;11.548;2022-08-30T08:32:29;18.40;82.56
64599;SHT31;51008;51.504;11.548;2022-08-30T08:37:30;18.69;82.60
64599;SHT31;51008;51.504;11.548;2022-08-30T08:48:33;18.85;81.04
64599;SHT31;51008;51.504;11.548;2022-08-30T08:53:35;19.08;80.99
64599;SHT31;51008;51.504;11.548;2022-08-30T08:58:49;19.30;80.51
64599;SHT31;51008;51.504;11.548;2022-08-30T09:03:51;19.61;79.96
64599;SHT31;51008;51.504;11.548;2022-08-30T09:08:52;19.67;78.40
64599;SHT31;51008;51.504;11.548;2022-08-30T09:13:53;19.60;78.67
64599;SHT31;51008;51.504;11.548;2022-08-30T09:18:54;19.54;78.54
64599;SHT31;51008;51.504;11.548;2022-08-30T09:23:59;19.46;79.45
64599;SHT31;51008;51.504;11.548;2022-08-30T09:29:03;19.33;79.61
64599;SHT31;51008;51.504;11.548;2022-08-30T09:34:07;19.36;79.22
64599;SHT31;51008;51.504;11.548;2022-08-30T09:39:19;19.41;79.19
64599;SHT31;51008;51.504;11.548;2022-08-30T09:44:26;19.92;78.37
64599;SHT31;51008;51.504;11.548;2022-08-30T09:49:38;20.10;77.07
64599;SHT31;51008;51.504;11.548;2022-08-30T10:00:18;20.72;75.93
64599;SHT31;51008;51.504;11.548;2022-08-30T10:11:00;21.73;71.31
64599;SHT31;51008;51.504;11.548;2022-08-30T10:21:38;21.73;72.13
64599;SHT31;51008;51.504;11.548;2022-08-30T10:26:45;21.74;71.86
64599;SHT31;51008;51.504;11.548;2022-08-30T10:31:53;21.81;70.50
64599;SHT31;51008;51.504;11.548;2022-08-30T10:37:06;21.89;71.22
64599;SHT31;51008;51.504;11.548;2022-08-30T10:42:14;22.21;69.54
64599;SHT31;51008;51.504;11.548;2022-08-30T10:53:08;22.19;69.87
64599;SHT31;51008;51.504;11.548;2022-08-30T10:58:11;22.27;69.79
64599;SHT31;51008;51.504;11.548;2022-08-30T11:03:22;22.92;68.31
64599;SHT31;51008;51.504;11.548;2022-08-30T11:13:51;23.65;64.82
64599;SHT31;51008;51.504;11.548;2022-08-30T11:18:56;23.64;63.66
64599;SHT31;51008;51.504;11.548;2022-08-30T11:44:48;24.65;58.92
64599;SHT31;51008;51.504;11.548;2022-08-30T11:50:03;25.06;58.70
64599;SHT31;51008;51.504;11.548;2022-08-30T12:00:38;25.16;57.42
64599;SHT31;51008;51.504;11.548;2022-08-30T12:15:55;24.14;60.26
64599;SHT31;51008;51.504;11.548;2022-08-30T12:21:01;23.61;61.07
64599;SHT31;51008;51.504;11.548;2022-08-30T12:31:24;23.02;63.06
64599;SHT31;51008;51.504;11.548;2022-08-30T12:36:36;23.79;61.85
64599;SHT31;51008;51.504;11.548;2022-08-30T12:41:38;24.23;60.43
64599;SHT31;51008;51.504;11.548;2022-08-30T12:46:40;24.64;58.39
64599;SHT31;51008;51.504;11.548;2022-08-30T12:51:43;24.98;56.99
64599;SHT31;51008;51.504;11.548;2022-08-30T12:56:57;25.23;55.89
64599;SHT31;51008;51.504;11.548;2022-08-30T13:02:20;25.50;55.69
64599;SHT31;51008;51.504;11.548;2022-08-30T13:07:39;25.00;55.40
64599;SHT31;51008;51.504;11.548;2022-08-30T13:12:57;24.46;56.52
64599;SHT31;51008;51.504;11.548;2022-08-30T13:18:27;24.96;56.50
64599;SHT31;51008;51.504;11.548;2022-08-30T13:23:28;24.14;56.29
64599;SHT31;51008;51.504;11.548;2022-08-30T13:28:29;23.89;57.24
64599;SHT31;51008;51.504;11.548;2022-08-30T13:33:30;23.58;58.51
64599;SHT31;51008;51.504;11.548;2022-08-30T13:38:31;23.86;59.41
64599;SHT31;51008;51.504;11.548;2022-08-30T13:43:32;24.46;56.79
64599;SHT31;51008;51.504;11.548;2022-08-30T13:48:33;25.00;55.60
64599;SHT31;51008;51.504;11.548;2022-08-30T13:53:34;24.99;53.89
64599;SHT31;51008;51.504;11.548;2022-08-30T13:58:36;24.26;55.90
64599;SHT31;51008;51.504;11.548;2022-08-30T14:03:37;24.44;54.85
64599;SHT31;51008;51.504;11.548;2022-08-30T14:08:38;24.48;54.43
64599;SHT31;51008;51.504;11.548;2022-08-30T14:13:39;24.75;53.44
64599;SHT31;51008;51.504;11.548;2022-08-30T14:18:40;24.83;53.16
64599;SHT31;51008;51.504;11.548;2022-08-30T14:23:41;24.89;54.20
64599;SHT31;51008;51.504;11.548;2022-08-30T14:28:42;24.68;53.41
64599;SHT31;51008;51.504;11.548;2022-08-30T14:33:43;24.78;51.85
64599;SHT31;51008;51.504;11.548;2022-08-30T14:38:44;24.86;52.27
64599;SHT31;51008;51.504;11.548;2022-08-30T14:43:45;24.78;52.54
64599;SHT31;51008;51.504;11.548;2022-08-30T14:48:46;24.65;52.15
64599;SHT31;51008;51.504;11.548;2022-08-30T14:53:51;24.57;51.64
64599;SHT31;51008;51.504;11.548;2022-08-30T14:58:53;24.34;52.53
64599;SHT31;51008;51.504;11.548;2022-08-30T15:03:54;24.09;53.06
64599;SHT31;51008;51.504;11.548;2022-08-30T15:08:56;23.65;53.15
64599;SHT31;51008;51.504;11.548;2022-08-30T15:13:56;23.28;53.88
64599;SHT31;51008;51.504;11.548;2022-08-30T15:18:58;23.30;54.89
64599;SHT31;51008;51.504;11.548;2022-08-30T15:24:00;23.47;54.50
64599;SHT31;51008;51.504;11.548;2022-08-30T15:29:02;23.62;54.13
64599;SHT31;51008;51.504;11.548;2022-08-30T15:34:03;23.75;53.95
64599;SHT31;51008;51.504;11.548;2022-08-30T15:39:05;23.64;53.25
64599;SHT31;51008;51.504;11.548;2022-08-30T15:44:06;23.53;53.73
64599;SHT31;51008;51.504;11.548;2022-08-30T15:49:14;23.36;54.75
64599;SHT31;51008;51.504;11.548;2022-08-30T15:54:18;23.19;55.81
64599;SHT31;51008;51.504;11.548;2022-08-30T15:59:19;23.00;56.44
64599;SHT31;51008;51.504;11.548;2022-08-30T16:04:20;22.67;57.30
64599;SHT31;51008;51.504;11.548;2022-08-30T16:09:22;22.68;56.55
64599;SHT31;51008;51.504;11.548;2022-08-30T16:14:23;22.73;56.87
64599;SHT31;51008;51.504;11.548;2022-08-30T16:19:24;22.85;56.39
64599;SHT31;51008;51.504;11.548;2022-08-30T16:24:26;22.75;55.31
64599;SHT31;51008;51.504;11.548;2022-08-30T16:29:27;22.64;55.37
64599;SHT31;51008;51.504;11.548;2022-08-30T16:34:28;22.64;56.05
64599;SHT31;51008;51.504;11.548;2022-08-30T16:39:29;22.53;55.44
64599;SHT31;51008;51.504;11.548;2022-08-30T16:44:30;22.33;55.90
64599;SHT31;51008;51.504;11.548;2022-08-30T16:49:31;22.26;55.77
64599;SHT31;51008;51.504;11.548;2022-08-30T16:54:32;22.16;56.08
64599;SHT31;51008;51.504;11.548;2022-08-30T16:59:33;22.06;56.12
64599;SHT31;51008;51.504;11.548;2022-08-30T17:04:34;22.01;57.88
64599;SHT31;51008;51.504;11.548;2022-08-30T17:09:35;21.81;57.42
64599;SHT31;51008;51.504;11.548;2022-08-30T17:14:36;21.61;58.94
64599;SHT31;51008;51.504;11.548;2022-08-30T17:19:37;21.55;59.62
64599;SHT31;51008;51.504;11.548;2022-08-30T17:24:39;21.44;60.30
64599;SHT31;51008;51.504;11.548;2022-08-30T17:29:40;21.36;62.11
64599;SHT31;51008;51.504;11.548;2022-08-30T17:34:41;21.23;61.85
64599;SHT31;51008;51.504;11.548;2022-08-30T17:39:42;21.06;63.31
64599;SHT31;51008;51.504;11.548;2022-08-30T17:44:43;20.85;63.72
64599;SHT31;51008;51.504;11.548;2022-08-30T17:49:44;20.57;65.25
64599;SHT31;51008;51.504;11.548;2022-08-30T17:54:45;20.33;65.96
64599;SHT31;51008;51.504;11.548;2022-08-30T17:59:46;20.06;66.56
64599;SHT31;51008;51.504;11.548;2022-08-30T18:04:47;19.81;67.00
64599;SHT31;51008;51.504;11.548;2022-08-30T18:09:47;19.60;67.88
64599;SHT31;51008;51.504;11.548;2022-08-30T18:14:48;19.37;68.77
64599;SHT31;51008;51.504;11.548;2022-08-30T18:19:49;19.19;69.20
64599;SHT31;51008;51.504;11.548;2022-08-30T18:24:50;18.99;69.95
64599;SHT31;51008;51.504;11.548;2022-08-30T18:29:51;18.74;70.84
64599;SHT31;51008;51.504;11.548;2022-08-30T18:34:52;18.53;71.71
64599;SHT31;51008;51.504;11.548;2022-08-30T18:39:53;18.34;71.97
64599;SHT31;51008;51.504;11.548;2022-08-30T18:44:54;18.08;72.90
64599;SHT31;51008;51.504;11.548;2022-08-30T18:49:55;17.89;73.37
64599;SHT31;51008;51.504;11.548;2022-08-30T18:54:56;17.80;75.42
64599;SHT31;51008;51.504;11.548;2022-08-30T18:59:57;17.67;75.80
64599;SHT31;51008;51.504;11.548;2022-08-30T19:04:58;17.59;76.28
64599;SHT31;51008;51.504;11.548;2022-08-30T19:09:59;17.49;76.18
64599;SHT31;51008;51.504;11.548;2022-08-30T19:15:00;17.36;77.22
64599;SHT31;51008;51.504;11.548;2022-08-30T19:20:06;17.26;76.55
64599;SHT31;51008;51.504;11.548;2022-08-30T19:25:08;17.09;76.02
64599;SHT31;51008;51.504;11.548;2022-08-30T19:30:14;17.01;76.10
64599;SHT31;51008;51.504;11.548;2022-08-30T19:35:15;16.80;76.11
64599;SHT31;51008;51.504;11.548;2022-08-30T19:40:17;16.67;76.35
64599;SHT31;51008;51.504;11.548;2022-08-30T19:45:20;16.57;76.98
64599;SHT31;51008;51.504;11.548;2022-08-30T19:50:21;16.47;76.83
64599;SHT31;51008;51.504;11.548;2022-08-30T19:55:25;16.36;77.22
64599;SHT31;51008;51.504;11.548;2022-08-30T20:00:26;16.30;77.56
64599;SHT31;51008;51.504;11.548;2022-08-30T20:05:28;16.22;77.44
64599;SHT31;51008;51.504;11.548;2022-08-30T20:10:29;16.18;77.47
64599;SHT31;51008;51.504;11.548;2022-08-30T20:15:30;16.08;77.81
64599;SHT31;51008;51.504;11.548;2022-08-30T20:20:31;16.00;77.76
64599;SHT31;51008;51.504;11.548;2022-08-30T20:25:32;15.97;78.76
64599;SHT31;51008;51.504;11.548;2022-08-30T20:30:33;15.93;78.93
64599;SHT31;51008;51.504;11.548;2022-08-30T20:35:34;15.90;79.03
64599;SHT31;51008;51.504;11.548;2022-08-30T20:40:37;15.87;79.96
64599;SHT31;51008;51.504;11.548;2022-08-30T20:45:39;15.88;79.99
64599;SHT31;51008;51.504;11.548;2022-08-30T20:50:40;15.88;81.40
64599;SHT31;51008;51.504;11.548;2022-08-30T20:55:43;15.90;81.64
64599;SHT31;51008;51.504;11.548;2022-08-30T21:00:49;15.85;82.54
64599;SHT31;51008;51.504;11.548;2022-08-30T21:05:50;15.84;82.86
64599;SHT31;51008;51.504;11.548;2022-08-30T21:10:51;15.85;83.18
64599;SHT31;51008;51.504;11.548;2022-08-30T21:15:53;15.83;83.50
64599;SHT31;51008;51.504;11.548;2022-08-30T21:20:55;15.73;83.18
64599;SHT31;51008;51.504;11.548;2022-08-30T21:25:56;15.64;82.86
64599;SHT31;51008;51.504;11.548;2022-08-30T21:36:07;15.42;83.75
64599;SHT31;51008;51.504;11.548;2022-08-30T21:41:08;15.32;84.54
64599;SHT31;51008;51.504;11.548;2022-08-30T21:46:09;15.35;85.96
64599;SHT31;51008;51.504;11.548;2022-08-30T21:51:10;15.44;86.34
64599;SHT31;51008;51.504;11.548;2022-08-30T21:56:14;15.52;86.16
64599;SHT31;51008;51.504;11.548;2022-08-30T22:01:22;15.43;85.64
64599;SHT31;51008;51.504;11.548;2022-08-30T22:06:24;15.33;86.53
64599;SHT31;51008;51.504;11.548;2022-08-30T22:11:26;15.33;86.79
64599;SHT31;51008;51.504;11.548;2022-08-30T22:16:27;15.29;85.99
64599;SHT31;51008;51.504;11.548;2022-08-30T22:21:30;15.21;85.87
64599;SHT31;51008;51.504;11.548;2022-08-30T22:26:32;15.08;86.17
64599;SHT31;51008;51.504;11.548;2022-08-30T22:31:34;14.95;86.42
64599;SHT31;51008;51.504;11.548;2022-08-30T22:36:36;14.84;87.70
64599;SHT31;51008;51.504;11.548;2022-08-30T22:41:40;14.83;88.13
64599;SHT31;51008;51.504;11.548;2022-08-30T22:46:42;14.83;88.91
64599;SHT31;51008;51.504;11.548;2022-08-30T22:51:42;14.91;88.77
64599;SHT31;51008;51.504;11.548;2022-08-30T22:56:43;14.98;88.74
64599;SHT31;51008;51.504;11.548;2022-08-30T23:01:44;14.97;88.68
64599;SHT31;51008;51.504;11.548;2022-08-30T23:06:45;14.95;88.97
64599;SHT31;51008;51.504;11.548;2022-08-30T23:11:46;15.12;89.75
64599;SHT31;51008;51.504;11.548;2022-08-30T23:16:47;15.16;88.67
64599;SHT31;51008;51.504;11.548;2022-08-30T23:21:48;15.25;88.57
64599;SHT31;51008;51.504;11.548;2022-08-30T23:26:49;15.21;87.86
64599;SHT31;51008;51.504;11.548;2022-08-30T23:31:50;15.24;87.80
64599;SHT31;51008;51.504;11.548;2022-08-30T23:36:51;15.18;88.81
64599;SHT31;51008;51.504;11.548;2022-08-30T23:41:52;15.18;89.04
64599;SHT31;51008;51.504;11.548;2022-08-30T23:46:53;15.25;89.31
64599;SHT31;51008;51.504;11.548;2022-08-30T23:51:54;15.33;89.13
64599;SHT31;51008;51.504;11.548;2022-08-30T23:56:55;15.36;88.96
